createdAt,value
2022-09-13T00:00:28.074Z,21.32
2022-09-13T00:01:29.596Z,21.30
2022-09-13T00:02:31.231Z,21.29
2022-09-13T00:03:32.855Z,21.28
2022-09-13T00:04:34.364Z,21.27
2022-09-13T00:05:36.067Z,21.24
2022-09-13T00:06:37.613Z,21.19
2022-09-13T00:07:39.270Z,21.18
2022-09-13T00:08:40.748Z,21.17
2022-09-13T00:09:42.279Z,21.15
2022-09-13T00:10:44.010Z,21.15
2022-09-13T00:11:45.562Z,21.12
2022-09-13T00:12:47.877Z,21.11
2022-09-13T00:13:49.518Z,21.11
2022-09-13T00:14:51.686Z,21.10
2022-09-13T00:15:53.130Z,21.09
2022-09-13T00:16:54.566Z,21.09
2022-09-13T00:17:56.275Z,21.10
2022-09-13T00:18:57.846Z,21.07
2022-09-13T00:19:59.335Z,21.08
2022-09-13T00:21:04.531Z,21.06
2022-09-13T00:22:06.606Z,21.05
2022-09-13T00:23:08.358Z,21.04
2022-09-13T00:24:09.903Z,21.02
2022-09-13T00:25:11.394Z,21.02
2022-09-13T00:26:14.065Z,21.02
2022-09-13T00:27:15.564Z,21.00
2022-09-13T00:28:17.048Z,20.99
2022-09-13T00:29:18.571Z,20.98
2022-09-13T00:30:20.074Z,20.97
2022-09-13T00:31:21.654Z,20.89
2022-09-13T00:32:23.142Z,20.95
2022-09-13T00:33:24.828Z,20.94
2022-09-13T00:34:27.508Z,20.92
2022-09-13T00:35:28.983Z,20.88
2022-09-13T00:36:30.498Z,20.81
2022-09-13T00:37:33.352Z,20.76
2022-09-13T00:38:35.507Z,20.73
2022-09-13T00:39:36.997Z,20.71
2022-09-13T00:40:38.467Z,20.68
2022-09-13T00:41:40.158Z,20.65
2022-09-13T00:42:41.682Z,20.64
2022-09-13T00:43:46.170Z,20.63
2022-09-13T00:44:57.813Z,20.63
2022-09-13T00:45:59.284Z,20.61
2022-09-13T00:47:00.884Z,20.61
2022-09-13T00:48:04.479Z,20.60
2022-09-13T00:49:18.319Z,20.59
2022-09-13T00:50:19.890Z,20.59
2022-09-13T00:51:21.362Z,20.58
2022-09-13T00:52:23.071Z,20.57
2022-09-13T00:53:26.340Z,20.57
2022-09-13T00:54:28.754Z,20.55
2022-09-13T00:55:49.879Z,20.55
2022-09-13T00:56:52.907Z,20.54
2022-09-13T00:57:54.539Z,20.52
2022-09-13T00:58:58.962Z,20.52
2022-09-13T01:00:00.364Z,20.51
2022-09-13T01:01:02.495Z,20.50
2022-09-13T01:02:04.622Z,20.51
2022-09-13T01:03:07.008Z,20.49
2022-09-13T01:04:12.495Z,20.49
2022-09-13T01:05:14.848Z,20.47
2022-09-13T01:06:20.498Z,20.47
2022-09-13T01:07:22.054Z,20.46
2022-09-13T01:08:23.571Z,20.45
2022-09-13T01:09:25.023Z,20.45
2022-09-13T01:10:27.188Z,20.43
2022-09-13T01:11:32.144Z,20.43
2022-09-13T01:12:43.384Z,20.33
2022-09-13T01:13:44.832Z,20.39
2022-09-13T01:14:46.557Z,20.39
2022-09-13T01:15:48.075Z,20.37
2022-09-13T01:16:49.732Z,20.37
2022-09-13T01:17:52.173Z,20.35
2022-09-13T01:18:53.637Z,20.32
2022-09-13T01:19:55.311Z,20.32
2022-09-13T01:20:59.799Z,20.28
2022-09-13T01:22:04.130Z,20.27
2022-09-13T01:23:08.731Z,20.25
2022-09-13T01:24:15.205Z,20.20
2022-09-13T01:25:16.787Z,20.17
2022-09-13T01:26:30.582Z,20.15
2022-09-13T01:27:38.380Z,20.11
2022-09-13T01:28:54.691Z,20.09
2022-09-13T01:29:56.146Z,20.05
2022-09-13T01:31:07.717Z,20.05
2022-09-13T01:32:09.180Z,20.04
2022-09-13T01:33:36.941Z,20.01
2022-09-13T01:34:38.384Z,20.02
2022-09-13T01:35:58.326Z,20.01
2022-09-13T01:36:59.810Z,19.98
2022-09-13T01:38:08.285Z,19.94
2022-09-13T01:39:17.863Z,19.92
2022-09-13T01:40:37.598Z,19.91
2022-09-13T01:41:42.673Z,19.89
2022-09-13T01:42:44.140Z,19.87
2022-09-13T01:44:04.203Z,19.87
2022-09-13T01:45:14.667Z,19.86
2022-09-13T01:46:19.939Z,19.86
2022-09-13T01:47:26.291Z,19.85
2022-09-13T01:48:57.414Z,19.85
2022-09-13T01:50:07.933Z,19.84
2022-09-13T01:51:18.338Z,19.84
2022-09-13T01:52:37.361Z,19.83
2022-09-13T01:53:58.866Z,19.83
2022-09-13T01:55:06.399Z,19.83
2022-09-13T01:56:12.614Z,19.82
2022-09-13T01:57:15.739Z,19.82
2022-09-13T01:58:17.288Z,19.81
2022-09-13T01:59:21.033Z,19.81
2022-09-13T02:00:22.502Z,19.81
2022-09-13T02:01:25.485Z,19.80
2022-09-13T02:02:28.559Z,19.77
2022-09-13T02:03:42.170Z,19.77
2022-09-13T02:04:45.058Z,19.76
2022-09-13T02:05:49.553Z,19.76
2022-09-13T02:07:17.663Z,19.74
2022-09-13T02:08:24.507Z,19.73
2022-09-13T02:09:26.183Z,19.72
2022-09-13T02:10:34.377Z,19.69
2022-09-13T02:11:35.949Z,19.66
2022-09-13T02:12:37.574Z,19.64
2022-09-13T02:13:48.191Z,19.59
2022-09-13T02:14:57.491Z,19.58
2022-09-13T02:16:00.569Z,19.57
2022-09-13T02:17:04.403Z,19.55
2022-09-13T02:18:08.582Z,19.51
2022-09-13T02:19:13.336Z,19.54
2022-09-13T02:20:25.159Z,19.54
2022-09-13T02:21:28.053Z,19.54
2022-09-13T02:22:32.056Z,19.53
2022-09-13T02:23:44.477Z,19.54
2022-09-13T02:24:46.462Z,19.52
2022-09-13T02:25:47.928Z,19.52
2022-09-13T02:26:49.524Z,19.51
2022-09-13T02:27:51.748Z,19.51
2022-09-13T02:28:53.331Z,19.49
2022-09-13T02:29:56.191Z,19.49
2022-09-13T02:30:57.902Z,19.49
2022-09-13T02:32:05.246Z,19.48
2022-09-13T02:33:35.971Z,19.49
2022-09-13T02:34:42.006Z,19.49
2022-09-13T02:35:49.499Z,19.49
2022-09-13T02:36:50.981Z,19.49
2022-09-13T02:37:56.266Z,19.49
2022-09-13T02:38:59.767Z,19.50
2022-09-13T02:40:03.430Z,19.51
2022-09-13T02:41:09.972Z,19.51
2022-09-13T02:42:16.127Z,19.51
2022-09-13T02:43:19.356Z,19.50
2022-09-13T02:44:20.846Z,19.51
2022-09-13T02:45:22.291Z,19.52
2022-09-13T02:46:26.673Z,19.52
2022-09-13T02:47:31.227Z,19.52
2022-09-13T02:48:53.785Z,19.52
2022-09-13T02:50:13.981Z,19.52
2022-09-13T02:51:21.602Z,19.53
2022-09-13T02:52:34.898Z,19.52
2022-09-13T02:53:47.800Z,19.53
2022-09-13T02:54:59.371Z,19.55
2022-09-13T02:56:06.230Z,19.54
2022-09-13T02:57:14.707Z,19.55
2022-09-13T02:58:24.840Z,19.56
2022-09-13T02:59:28.476Z,19.55
2022-09-13T03:00:30.005Z,19.57
2022-09-13T03:01:31.837Z,19.57
2022-09-13T03:02:33.564Z,19.58
2022-09-13T03:03:35.131Z,19.58
2022-09-13T03:04:36.554Z,19.59
2022-09-13T03:05:37.983Z,19.57
2022-09-13T03:06:39.918Z,19.58
2022-09-13T03:07:41.435Z,19.48
2022-09-13T03:08:42.914Z,19.61
2022-09-13T03:09:50.071Z,19.62
2022-09-13T03:10:55.426Z,19.61
2022-09-13T03:12:09.073Z,19.62
2022-09-13T03:13:30.123Z,19.63
2022-09-13T03:14:34.618Z,19.63
2022-09-13T03:15:45.520Z,19.63
2022-09-13T03:16:47.051Z,19.63
2022-09-13T03:18:10.911Z,19.63
2022-09-13T03:19:18.017Z,19.64
2022-09-13T03:20:30.422Z,19.63
2022-09-13T03:21:45.729Z,19.64
2022-09-13T03:22:50.734Z,19.65
2022-09-13T03:24:04.258Z,19.64
2022-09-13T03:25:11.696Z,19.66
2022-09-13T03:26:17.804Z,19.66
2022-09-13T03:27:19.310Z,19.66
2022-09-13T03:28:39.671Z,19.67
2022-09-13T03:29:52.493Z,19.67
2022-09-13T03:31:00.323Z,19.68
2022-09-13T03:32:22.094Z,19.68
2022-09-13T03:33:28.556Z,19.67
2022-09-13T03:34:40.661Z,19.68
2022-09-13T03:35:54.811Z,19.68
2022-09-13T03:36:57.507Z,19.67
2022-09-13T03:38:04.869Z,19.67
2022-09-13T03:39:15.199Z,19.66
2022-09-13T03:40:20.441Z,19.66
2022-09-13T03:41:24.872Z,19.63
2022-09-13T03:42:27.142Z,19.54
2022-09-13T03:43:35.611Z,19.53
2022-09-13T03:44:37.084Z,19.55
2022-09-13T03:45:41.466Z,19.54
2022-09-13T03:46:44.043Z,19.56
2022-09-13T03:47:45.494Z,19.57
2022-09-13T03:48:47.259Z,19.58
2022-09-13T03:49:50.610Z,19.59
2022-09-13T03:50:52.182Z,19.59
2022-09-13T03:51:53.621Z,19.61
2022-09-13T03:52:56.722Z,19.61
2022-09-13T03:53:59.542Z,19.64
2022-09-13T03:55:01.156Z,19.63
2022-09-13T03:56:11.465Z,19.64
2022-09-13T03:57:14.140Z,19.65
2022-09-13T03:58:16.947Z,19.66
2022-09-13T03:59:18.523Z,19.67
2022-09-13T04:00:20.122Z,19.66
2022-09-13T04:01:22.568Z,19.67
2022-09-13T04:02:24.715Z,19.68
2022-09-13T04:03:26.247Z,19.69
2022-09-13T04:04:27.743Z,19.70
2022-09-13T04:05:29.371Z,19.69
2022-09-13T04:06:30.834Z,19.68
2022-09-13T04:07:32.335Z,19.70
2022-09-13T04:08:33.892Z,19.71
2022-09-13T04:09:35.419Z,19.69
2022-09-13T04:10:37.631Z,19.68
2022-09-13T04:11:41.062Z,19.67
2022-09-13T04:12:42.560Z,19.66
2022-09-13T04:13:44.034Z,19.66
2022-09-13T04:14:45.532Z,19.68
2022-09-13T04:15:47.035Z,19.69
2022-09-13T04:16:48.594Z,19.68
2022-09-13T04:17:50.198Z,19.71
2022-09-13T04:18:51.650Z,19.69
2022-09-13T04:19:53.274Z,19.53
2022-09-13T04:20:58.127Z,19.71
2022-09-13T04:21:59.706Z,19.67
2022-09-13T04:23:01.148Z,19.68
2022-09-13T04:24:02.748Z,19.70
2022-09-13T04:25:04.435Z,19.70
2022-09-13T04:26:06.409Z,19.70
2022-09-13T04:27:07.940Z,19.70
2022-09-13T04:28:09.519Z,19.72
2022-09-13T04:29:11.526Z,19.71
2022-09-13T04:30:13.138Z,19.71
2022-09-13T04:31:14.591Z,19.72
2022-09-13T04:32:16.192Z,19.71
2022-09-13T04:33:17.698Z,19.68
2022-09-13T04:34:19.298Z,19.68
2022-09-13T04:35:20.743Z,19.66
2022-09-13T04:36:22.919Z,19.66
2022-09-13T04:37:24.543Z,19.65
2022-09-13T04:38:26.458Z,19.65
2022-09-13T04:39:28.167Z,19.65
2022-09-13T04:40:29.803Z,19.64
2022-09-13T04:41:34.604Z,19.66
2022-09-13T04:42:36.118Z,19.66
2022-09-13T04:43:37.631Z,19.65
2022-09-13T04:44:39.129Z,19.66
2022-09-13T04:45:40.615Z,19.65
2022-09-13T04:46:42.617Z,19.62
2022-09-13T04:47:44.193Z,19.61
2022-09-13T04:48:48.868Z,19.61
2022-09-13T04:49:50.354Z,19.61
2022-09-13T04:50:51.826Z,19.61
2022-09-13T04:51:53.271Z,19.61
2022-09-13T04:52:55.399Z,19.61
2022-09-13T04:53:57.138Z,19.62
2022-09-13T04:55:01.505Z,19.61
2022-09-13T04:56:03.505Z,19.61
2022-09-13T04:57:05.059Z,19.58
2022-09-13T04:58:06.555Z,19.58
2022-09-13T04:59:08.149Z,19.58
2022-09-13T05:00:10.293Z,19.58
2022-09-13T05:01:11.908Z,19.58
2022-09-13T05:02:13.621Z,19.56
2022-09-13T05:03:15.249Z,19.58
2022-09-13T05:04:16.797Z,19.57
2022-09-13T05:05:18.278Z,19.57
2022-09-13T05:06:19.851Z,19.57
2022-09-13T05:07:21.321Z,19.57
2022-09-13T05:08:22.784Z,19.58
2022-09-13T05:09:24.406Z,19.58
2022-09-13T05:10:25.974Z,19.57
2022-09-13T05:11:27.784Z,19.58
2022-09-13T05:12:29.258Z,19.56
2022-09-13T05:13:31.007Z,19.56
2022-09-13T05:14:32.504Z,19.58
2022-09-13T05:15:33.968Z,19.56
2022-09-13T05:16:35.498Z,19.53
2022-09-13T05:17:36.973Z,19.52
2022-09-13T05:18:43.153Z,19.51
2022-09-13T05:19:46.458Z,19.52
2022-09-13T05:20:47.899Z,19.53
2022-09-13T05:21:49.427Z,19.54
2022-09-13T05:22:50.928Z,19.54
2022-09-13T05:23:54.035Z,19.55
2022-09-13T05:24:55.863Z,19.57
2022-09-13T05:25:57.939Z,19.56
2022-09-13T05:26:59.413Z,19.57
2022-09-13T05:28:01.169Z,19.57
2022-09-13T05:29:02.630Z,19.58
2022-09-13T05:30:04.296Z,19.59
2022-09-13T05:31:05.809Z,19.60
2022-09-13T05:32:07.334Z,19.60
2022-09-13T05:33:08.928Z,19.57
2022-09-13T05:34:11.394Z,19.58
2022-09-13T05:35:13.743Z,19.59
2022-09-13T05:36:15.199Z,19.59
2022-09-13T05:37:16.855Z,19.60
2022-09-13T05:38:18.354Z,19.60
2022-09-13T05:40:00.325Z,19.59
2022-09-13T05:40:43.414Z,19.61
2022-09-13T05:41:45.198Z,19.61
2022-09-13T05:42:46.680Z,19.61
2022-09-13T05:43:48.258Z,19.62
2022-09-13T05:44:49.719Z,19.62
2022-09-13T05:45:51.231Z,19.64
2022-09-13T05:46:52.736Z,19.66
2022-09-13T05:47:54.228Z,19.63
2022-09-13T05:48:57.845Z,19.64
2022-09-13T05:50:10.247Z,19.64
2022-09-13T05:51:13.222Z,19.66
2022-09-13T05:52:14.723Z,19.68
2022-09-13T05:53:16.210Z,19.69
2022-09-13T05:54:17.760Z,19.70
2022-09-13T05:55:19.425Z,19.72
2022-09-13T05:56:21.796Z,19.71
2022-09-13T05:57:23.237Z,19.72
2022-09-13T05:58:24.699Z,19.72
2022-09-13T05:59:26.201Z,19.73
2022-09-13T06:00:27.653Z,19.73
2022-09-13T06:01:29.448Z,19.74
2022-09-13T06:02:31.185Z,19.76
2022-09-13T06:03:32.701Z,19.76
2022-09-13T06:04:35.254Z,19.77
2022-09-13T06:05:36.736Z,19.77
2022-09-13T06:06:38.207Z,19.79
2022-09-13T06:07:40.397Z,19.80
2022-09-13T06:08:42.186Z,19.81
2022-09-13T06:09:43.789Z,19.80
2022-09-13T06:10:54.062Z,19.81
2022-09-13T06:11:55.496Z,19.82
2022-09-13T06:12:56.989Z,19.81
2022-09-13T06:13:58.426Z,19.83
2022-09-13T06:14:59.932Z,19.84
2022-09-13T06:16:01.916Z,19.85
2022-09-13T06:17:03.418Z,19.84
2022-09-13T06:18:05.008Z,19.86
2022-09-13T06:19:06.768Z,19.85
2022-09-13T06:20:09.190Z,19.86
2022-09-13T06:21:18.276Z,19.86
2022-09-13T06:22:19.895Z,19.87
2022-09-13T06:23:21.364Z,19.88
2022-09-13T06:24:22.988Z,19.89
2022-09-13T06:25:24.479Z,19.89
2022-09-13T06:26:26.582Z,19.90
2022-09-13T06:27:29.232Z,19.91
2022-09-13T06:28:33.257Z,19.92
2022-09-13T06:29:38.188Z,19.94
2022-09-13T06:30:39.601Z,19.93
2022-09-13T06:31:44.707Z,19.95
2022-09-13T06:32:46.367Z,19.95
2022-09-13T06:33:47.854Z,19.97
2022-09-13T06:34:49.286Z,19.97
2022-09-13T06:35:50.731Z,19.97
2022-09-13T06:36:52.180Z,19.99
2022-09-13T06:37:59.530Z,19.99
2022-09-13T06:39:02.043Z,20.01
2022-09-13T06:40:05.110Z,20.03
2022-09-13T06:41:07.582Z,20.03
2022-09-13T06:42:09.028Z,20.03
2022-09-13T06:43:15.751Z,20.03
2022-09-13T06:44:17.216Z,20.04
2022-09-13T06:45:18.885Z,20.03
2022-09-13T06:46:24.508Z,20.04
2022-09-13T06:47:26.789Z,20.05
2022-09-13T06:48:30.638Z,20.05
2022-09-13T06:49:32.173Z,20.06
2022-09-13T06:50:33.608Z,20.05
2022-09-13T06:51:35.272Z,19.95
2022-09-13T06:52:37.466Z,19.96
2022-09-13T06:53:39.011Z,19.95
2022-09-13T06:54:40.927Z,19.96
2022-09-13T06:55:42.392Z,19.96
2022-09-13T06:56:43.843Z,19.95
2022-09-13T06:57:45.342Z,19.96
2022-09-13T06:58:48.547Z,19.99
2022-09-13T06:59:50.191Z,20.01
2022-09-13T07:00:55.942Z,20.02
2022-09-13T07:01:57.675Z,20.03
2022-09-13T07:02:59.163Z,20.04
2022-09-13T07:04:01.683Z,20.05
2022-09-13T07:05:03.242Z,20.05
2022-09-13T07:06:21.552Z,20.06
2022-09-13T07:07:23.756Z,20.01
2022-09-13T07:08:25.245Z,20.02
2022-09-13T07:09:26.759Z,20.00
2022-09-13T07:10:28.222Z,20.01
2022-09-13T07:11:32.000Z,20.04
2022-09-13T07:12:33.469Z,20.07
2022-09-13T07:13:35.091Z,20.06
2022-09-13T07:14:36.565Z,20.06
2022-09-13T07:15:38.043Z,20.08
2022-09-13T07:16:40.511Z,20.09
2022-09-13T07:17:41.958Z,20.11
2022-09-13T07:18:43.548Z,20.13
2022-09-13T07:19:44.986Z,20.14
2022-09-13T07:20:46.455Z,20.10
2022-09-13T07:21:49.830Z,20.10
2022-09-13T07:22:51.379Z,20.13
2022-09-13T07:23:53.152Z,20.15
2022-09-13T07:24:54.699Z,20.17
2022-09-13T07:25:56.375Z,20.20
2022-09-13T07:26:57.934Z,20.23
2022-09-13T07:27:59.400Z,20.24
2022-09-13T07:29:01.476Z,20.26
2022-09-13T07:30:03.005Z,20.27
2022-09-13T07:31:14.420Z,20.31
2022-09-13T07:32:15.913Z,20.32
2022-09-13T07:33:17.426Z,20.35
2022-09-13T07:34:20.419Z,20.35
2022-09-13T07:35:21.848Z,20.38
2022-09-13T07:36:23.962Z,20.39
2022-09-13T07:37:25.398Z,20.41
2022-09-13T07:38:26.936Z,20.42
2022-09-13T07:39:28.375Z,20.45
2022-09-13T07:40:29.834Z,20.47
2022-09-13T07:41:31.602Z,20.50
2022-09-13T07:42:33.071Z,20.51
2022-09-13T07:43:34.983Z,20.53
2022-09-13T07:44:36.623Z,20.54
2022-09-13T07:45:38.084Z,20.56
2022-09-13T07:46:43.770Z,20.57
2022-09-13T07:47:45.570Z,20.59
2022-09-13T07:48:47.247Z,20.60
2022-09-13T07:49:48.695Z,20.61
2022-09-13T07:50:59.099Z,20.63
2022-09-13T07:52:00.606Z,20.64
2022-09-13T07:53:02.075Z,20.65
2022-09-13T07:54:04.414Z,20.67
2022-09-13T07:55:06.401Z,20.66
2022-09-13T07:56:08.801Z,20.67
2022-09-13T07:57:10.269Z,20.69
2022-09-13T07:58:11.771Z,20.69
2022-09-13T07:59:14.039Z,20.69
2022-09-13T08:00:16.763Z,20.65
2022-09-13T08:01:21.391Z,20.63
2022-09-13T08:02:22.927Z,20.65
2022-09-13T08:03:24.575Z,20.68
2022-09-13T08:04:26.160Z,20.65
2022-09-13T08:05:27.695Z,20.66
2022-09-13T08:06:29.804Z,20.68
2022-09-13T08:07:33.076Z,20.66
2022-09-13T08:08:34.977Z,20.67
2022-09-13T08:09:36.442Z,20.69
2022-09-13T08:10:38.076Z,20.70
2022-09-13T08:11:40.386Z,20.69
2022-09-13T08:12:41.827Z,20.70
2022-09-13T08:13:43.323Z,20.73
2022-09-13T08:14:44.857Z,20.74
2022-09-13T08:15:46.364Z,20.78
2022-09-13T08:16:47.960Z,20.80
2022-09-13T08:17:49.729Z,20.83
2022-09-13T08:18:52.016Z,20.83
2022-09-13T08:19:53.491Z,20.83
2022-09-13T08:20:58.431Z,20.85
2022-09-13T08:21:59.891Z,20.86
2022-09-13T08:23:01.343Z,20.87
2022-09-13T08:24:03.038Z,20.91
2022-09-13T08:25:04.655Z,20.93
2022-09-13T08:26:07.934Z,20.94
2022-09-13T08:27:09.426Z,20.99
2022-09-13T08:28:14.789Z,21.01
2022-09-13T08:29:16.406Z,21.00
2022-09-13T08:30:17.883Z,21.00
2022-09-13T08:31:20.571Z,21.02
2022-09-13T08:32:22.544Z,21.02
2022-09-13T08:33:23.978Z,21.04
2022-09-13T08:34:25.611Z,21.09
2022-09-13T08:35:27.160Z,21.12
2022-09-13T08:36:28.608Z,21.16
2022-09-13T08:37:30.055Z,21.16
2022-09-13T08:38:32.190Z,21.19
2022-09-13T08:39:34.251Z,21.21
2022-09-13T08:40:40.787Z,21.22
2022-09-13T08:41:44.318Z,21.24
2022-09-13T08:43:04.187Z,21.28
2022-09-13T08:44:11.643Z,21.22
2022-09-13T08:45:13.284Z,21.20
2022-09-13T08:46:14.751Z,21.22
2022-09-13T08:47:28.771Z,21.25
2022-09-13T08:48:37.028Z,21.25
2022-09-13T08:49:43.258Z,21.24
2022-09-13T08:50:45.161Z,21.26
2022-09-13T08:51:48.053Z,21.29
2022-09-13T08:52:55.694Z,21.36
2022-09-13T08:53:57.791Z,21.42
2022-09-13T08:55:00.104Z,21.45
2022-09-13T08:56:07.675Z,21.53
2022-09-13T08:57:17.048Z,21.61
2022-09-13T08:58:24.168Z,21.66
2022-09-13T08:59:40.859Z,21.72
2022-09-13T09:00:44.107Z,21.78
2022-09-13T09:02:07.508Z,21.85
2022-09-13T09:03:09.063Z,21.90
2022-09-13T09:04:32.429Z,21.94
2022-09-13T09:05:36.335Z,21.99
2022-09-13T09:06:37.837Z,22.06
2022-09-13T09:07:42.918Z,22.05
2022-09-13T09:08:47.215Z,22.10
2022-09-13T09:09:48.627Z,22.14
2022-09-13T09:10:50.778Z,22.17
2022-09-13T09:11:56.895Z,22.19
2022-09-13T09:13:30.655Z,22.20
2022-09-13T09:14:32.814Z,22.23
2022-09-13T09:15:36.281Z,22.28
2022-09-13T09:16:39.850Z,22.32
2022-09-13T09:17:58.366Z,22.35
2022-09-13T09:19:01.214Z,22.39
2022-09-13T09:20:06.638Z,22.41
2022-09-13T09:21:10.382Z,22.42
2022-09-13T09:22:13.709Z,22.42
2022-09-13T09:23:21.432Z,22.45
2022-09-13T09:24:23.818Z,22.50
2022-09-13T09:25:26.155Z,22.55
2022-09-13T09:26:29.304Z,22.58
2022-09-13T09:27:30.917Z,22.62
2022-09-13T09:28:32.498Z,22.67
2022-09-13T09:29:36.082Z,22.69
2022-09-13T09:30:40.262Z,22.69
2022-09-13T09:31:42.169Z,22.71
2022-09-13T09:32:49.279Z,22.72
2022-09-13T09:33:50.734Z,22.75
2022-09-13T09:34:52.375Z,22.74
2022-09-13T09:35:56.975Z,22.77
2022-09-13T09:37:01.549Z,22.74
2022-09-13T09:38:14.881Z,22.77
2022-09-13T09:39:16.554Z,22.79
2022-09-13T09:40:18.169Z,22.79
2022-09-13T09:41:26.748Z,22.72
2022-09-13T09:42:28.997Z,22.72
2022-09-13T09:43:33.420Z,22.71
2022-09-13T09:44:35.045Z,22.73
2022-09-13T09:45:36.499Z,22.76
2022-09-13T09:46:38.577Z,22.80
2022-09-13T09:47:42.875Z,22.82
2022-09-13T09:48:45.950Z,22.87
2022-09-13T09:50:06.462Z,22.93
2022-09-13T09:51:10.325Z,23.02
2022-09-13T09:52:12.499Z,23.11
2022-09-13T09:53:18.739Z,23.18
2022-09-13T09:54:20.273Z,23.27
2022-09-13T09:55:27.734Z,23.34
2022-09-13T09:56:30.624Z,23.44
2022-09-13T09:57:50.974Z,23.54
2022-09-13T09:58:54.092Z,23.65
2022-09-13T10:00:00.691Z,23.71
2022-09-13T10:01:02.213Z,23.81
2022-09-13T10:02:14.959Z,23.88
2022-09-13T10:03:20.241Z,23.99
2022-09-13T10:04:22.182Z,24.02
2022-09-13T10:05:23.853Z,24.04
2022-09-13T10:06:27.738Z,24.11
2022-09-13T10:07:35.815Z,24.17
2022-09-13T10:08:38.079Z,24.20
2022-09-13T10:09:39.647Z,24.24
2022-09-13T10:10:43.883Z,24.26
2022-09-13T10:11:52.654Z,24.29
2022-09-13T10:12:56.001Z,24.32
2022-09-13T10:14:00.945Z,24.34
2022-09-13T10:15:03.440Z,24.37
2022-09-13T10:16:25.957Z,24.34
2022-09-13T10:17:27.738Z,24.29
2022-09-13T10:18:43.954Z,24.29
2022-09-13T10:19:55.315Z,24.33
2022-09-13T10:21:20.925Z,24.36
2022-09-13T10:22:23.068Z,24.40
2022-09-13T10:23:24.543Z,24.44
2022-09-13T10:24:26.026Z,24.45
2022-09-13T10:25:27.583Z,24.47
2022-09-13T10:26:29.030Z,24.49
2022-09-13T10:27:34.956Z,24.53
2022-09-13T10:28:40.628Z,24.57
2022-09-13T10:29:43.368Z,24.60
2022-09-13T10:30:54.850Z,24.62
2022-09-13T10:32:03.651Z,24.67
2022-09-13T10:33:05.149Z,24.70
2022-09-13T10:34:07.638Z,24.71
2022-09-13T10:35:16.128Z,24.70
2022-09-13T10:36:48.067Z,24.74
2022-09-13T10:37:43.434Z,24.74
2022-09-13T10:38:57.984Z,24.76
2022-09-13T10:40:09.156Z,24.78
2022-09-13T10:41:11.331Z,24.80
2022-09-13T10:42:13.137Z,24.82
2022-09-13T10:43:15.603Z,24.83
2022-09-13T10:44:22.528Z,24.85
2022-09-13T10:45:24.923Z,24.86
2022-09-13T10:46:26.636Z,24.86
2022-09-13T10:47:30.055Z,24.86
2022-09-13T10:48:31.758Z,24.85
2022-09-13T10:49:37.462Z,24.86
2022-09-13T10:50:38.935Z,24.85
2022-09-13T10:51:40.378Z,24.87
2022-09-13T10:52:48.187Z,24.87
2022-09-13T10:53:49.782Z,24.88
2022-09-13T10:54:51.313Z,24.89
2022-09-13T10:55:52.967Z,24.90
2022-09-13T10:56:54.428Z,24.91
2022-09-13T10:57:56.659Z,24.92
2022-09-13T10:59:17.551Z,24.91
2022-09-13T11:00:23.049Z,24.92
2022-09-13T11:01:40.385Z,24.93
2022-09-13T11:02:45.123Z,24.93
2022-09-13T11:03:46.674Z,24.93
2022-09-13T11:04:48.193Z,24.92
2022-09-13T11:05:52.688Z,24.92
2022-09-13T11:07:10.188Z,24.92
2022-09-13T11:08:30.406Z,24.92
2022-09-13T11:09:31.885Z,24.93
2022-09-13T11:10:36.213Z,24.94
2022-09-13T11:11:53.019Z,24.94
2022-09-13T11:13:00.775Z,24.94
2022-09-13T11:14:14.639Z,24.93
2022-09-13T11:15:36.712Z,24.94
2022-09-13T11:16:41.280Z,24.93
2022-09-13T11:17:51.966Z,24.94
2022-09-13T11:18:59.086Z,24.93
2022-09-13T11:20:07.343Z,24.91
2022-09-13T11:21:24.256Z,24.90
2022-09-13T11:22:25.685Z,24.88
2022-09-13T11:23:49.855Z,24.88
2022-09-13T11:24:55.621Z,24.87
2022-09-13T11:25:57.048Z,24.86
2022-09-13T11:26:58.564Z,24.86
2022-09-13T11:28:18.748Z,24.84
2022-09-13T11:29:25.942Z,24.81
2022-09-13T11:30:30.035Z,24.78
2022-09-13T11:32:01.186Z,24.77
2022-09-13T11:33:06.150Z,24.71
2022-09-13T11:34:29.737Z,24.69
2022-09-13T11:36:09.769Z,24.69
2022-09-13T11:37:17.123Z,24.70
2022-09-13T11:38:24.782Z,24.70
2022-09-13T11:39:33.051Z,24.71
2022-09-13T11:40:43.969Z,24.72
2022-09-13T11:41:52.163Z,24.68
2022-09-13T11:42:58.303Z,24.67
2022-09-13T11:44:18.493Z,24.68
2022-09-13T11:45:25.876Z,24.65
2022-09-13T11:46:44.238Z,24.61
2022-09-13T11:48:04.237Z,24.62
2022-09-13T11:49:24.661Z,24.58
2022-09-13T11:50:33.555Z,24.54
2022-09-13T11:51:48.914Z,24.49
2022-09-13T11:53:08.943Z,24.46
2022-09-13T11:54:31.172Z,24.50
2022-09-13T11:55:33.766Z,24.49
2022-09-13T11:56:38.362Z,24.51
2022-09-13T11:57:44.755Z,24.47
2022-09-13T11:58:48.285Z,24.46
2022-09-13T11:59:51.496Z,24.48
2022-09-13T12:00:55.754Z,24.49
2022-09-13T12:01:58.361Z,24.50
2022-09-13T12:03:00.013Z,24.46
2022-09-13T12:04:03.441Z,24.46
2022-09-13T12:05:21.690Z,24.47
2022-09-13T12:06:40.291Z,24.43
2022-09-13T12:07:41.770Z,24.39
2022-09-13T12:08:44.727Z,24.37
2022-09-13T12:09:53.763Z,24.39
2022-09-13T12:10:59.575Z,24.36
2022-09-13T12:12:06.790Z,24.35
2022-09-13T12:13:09.514Z,24.26
2022-09-13T12:14:12.186Z,24.27
2022-09-13T12:15:16.819Z,24.30
2022-09-13T12:16:38.615Z,24.33
2022-09-13T12:17:40.663Z,24.22
2022-09-13T12:18:43.629Z,24.20
2022-09-13T12:19:45.652Z,24.23
2022-09-13T12:20:48.391Z,24.27
2022-09-13T12:21:51.405Z,24.31
2022-09-13T12:22:52.867Z,24.35
2022-09-13T12:24:00.283Z,24.39
2022-09-13T12:25:07.506Z,24.44
2022-09-13T12:26:30.763Z,24.43
2022-09-13T12:27:40.092Z,24.47
2022-09-13T12:28:54.815Z,24.46
2022-09-13T12:29:56.769Z,24.48
2022-09-13T12:30:59.570Z,24.50
2022-09-13T12:32:02.655Z,24.53
2022-09-13T12:33:05.386Z,24.53
2022-09-13T12:34:07.656Z,24.54
2022-09-13T12:35:17.151Z,24.56
2022-09-13T12:36:25.751Z,24.59
2022-09-13T12:37:31.837Z,24.57
2022-09-13T12:38:39.058Z,24.59
2022-09-13T12:39:43.916Z,24.58
2022-09-13T12:40:47.892Z,24.59
2022-09-13T12:41:56.426Z,24.60
2022-09-13T12:43:00.810Z,24.62
2022-09-13T12:44:21.163Z,24.60
2022-09-13T12:45:27.416Z,24.60
2022-09-13T12:46:47.488Z,24.62
2022-09-13T12:47:55.040Z,24.59
2022-09-13T12:49:19.614Z,24.58
2022-09-13T12:50:44.771Z,24.60
2022-09-13T12:52:05.470Z,24.62
2022-09-13T12:53:06.903Z,24.63
2022-09-13T12:54:21.734Z,24.60
2022-09-13T12:55:46.154Z,24.61
2022-09-13T12:57:14.017Z,24.64
2022-09-13T12:58:15.478Z,24.67
2022-09-13T12:59:23.219Z,24.69
2022-09-13T13:00:26.002Z,24.70
2022-09-13T13:01:27.829Z,24.74
2022-09-13T13:02:30.880Z,24.78
2022-09-13T13:03:33.953Z,24.81
2022-09-13T13:04:35.514Z,24.84
2022-09-13T13:05:41.948Z,24.88
2022-09-13T13:06:53.850Z,24.92
2022-09-13T13:07:58.834Z,24.97
2022-09-13T13:09:01.922Z,25.02
2022-09-13T13:10:03.526Z,25.04
2022-09-13T13:11:06.715Z,25.08
2022-09-13T13:12:11.338Z,25.10
2022-09-13T13:13:42.123Z,25.14
2022-09-13T13:14:47.139Z,25.15
2022-09-13T13:15:50.176Z,25.15
2022-09-13T13:16:51.963Z,25.17
2022-09-13T13:17:53.941Z,25.18
2022-09-13T13:18:56.451Z,25.22
2022-09-13T13:19:57.969Z,25.26
2022-09-13T13:20:59.388Z,25.27
2022-09-13T13:22:19.361Z,25.32
2022-09-13T13:23:23.882Z,25.37
2022-09-13T13:24:28.186Z,25.39
2022-09-13T13:25:38.886Z,25.39
2022-09-13T13:26:43.182Z,25.43
2022-09-13T13:27:48.665Z,25.45
2022-09-13T13:28:52.111Z,25.34
2022-09-13T13:30:12.399Z,25.37
2022-09-13T13:31:32.492Z,25.45
2022-09-13T13:32:34.074Z,25.51
2022-09-13T13:33:48.767Z,25.50
2022-09-13T13:34:50.665Z,25.55
2022-09-13T13:35:52.271Z,25.60
2022-09-13T13:37:08.764Z,25.62
2022-09-13T13:38:28.352Z,25.62
2022-09-13T13:39:29.830Z,25.65
2022-09-13T13:40:31.289Z,25.68
2022-09-13T13:41:32.746Z,25.70
2022-09-13T13:42:39.623Z,25.74
2022-09-13T13:43:41.085Z,25.76
2022-09-13T13:44:42.498Z,25.78
2022-09-13T13:45:56.533Z,25.80
2022-09-13T13:47:07.062Z,25.82
2022-09-13T13:48:17.888Z,25.84
2022-09-13T13:49:31.644Z,25.84
2022-09-13T13:50:36.198Z,25.84
2022-09-13T13:51:40.627Z,25.86
2022-09-13T13:52:48.164Z,25.87
2022-09-13T13:53:55.134Z,25.89
2022-09-13T13:54:59.299Z,25.85
2022-09-13T13:56:07.927Z,25.86
2022-09-13T13:57:38.927Z,25.88
2022-09-13T13:58:50.838Z,25.91
2022-09-13T13:59:53.875Z,25.92